createdAt,value
2018-03-30T00:03:53.201Z,10.03
2018-03-30T00:08:56.139Z,9.03
2018-03-30T00:13:58.939Z,6.97
2018-03-30T00:19:01.919Z,3.87
2018-03-30T00:24:04.854Z,10.40
2018-03-30T00:29:08.389Z,10.17
2018-03-30T00:34:11.012Z,9.00
2018-03-30T00:39:14.253Z,8.30
2018-03-30T00:44:16.822Z,4.10
2018-03-30T00:49:19.355Z,4.77
2018-03-30T00:54:21.920Z,6.13
2018-03-30T00:59:24.542Z,7.60
2018-03-30T01:04:27.555Z,7.10
2018-03-30T01:09:30.452Z,6.70
2018-03-30T01:14:32.999Z,8.23
2018-03-30T01:19:35.868Z,3.97
2018-03-30T01:24:38.400Z,8.40
2018-03-30T01:29:40.927Z,4.50
2018-03-30T01:34:44.349Z,5.10
2018-03-30T01:39:46.914Z,8.10
2018-03-30T01:44:49.707Z,6.27
2018-03-30T01:49:52.234Z,4.63
2018-03-30T01:54:55.545Z,5.90
2018-03-30T01:59:58.587Z,4.40
2018-03-30T02:05:01.095Z,2.70
2018-03-30T02:10:03.928Z,2.33
2018-03-30T02:15:06.549Z,2.90
2018-03-30T02:20:10.438Z,5.73
2018-03-30T02:25:12.986Z,3.30
2018-03-30T02:30:15.718Z,3.90
2018-03-30T02:35:18.280Z,5.53
2018-03-30T02:40:20.820Z,6.27
2018-03-30T02:45:23.560Z,11.50
2018-03-30T02:50:27.045Z,4.13
2018-03-30T02:55:29.641Z,4.47
2018-03-30T03:00:32.244Z,2.30
2018-03-30T03:05:35.055Z,3.53
2018-03-30T03:10:37.596Z,3.37
2018-03-30T03:15:40.143Z,3.90
2018-03-30T03:20:43.565Z,3.80
2018-03-30T03:25:46.336Z,4.10
2018-03-30T03:30:49.052Z,3.27
2018-03-30T03:35:51.611Z,3.93
2018-03-30T03:40:54.344Z,3.60
2018-03-30T03:45:58.019Z,4.10
2018-03-30T03:51:00.631Z,1.93
2018-03-30T03:56:03.368Z,2.43
2018-03-30T04:01:06.078Z,4.27
2018-03-30T04:06:08.769Z,3.10
2018-03-30T04:11:11.307Z,5.27
2018-03-30T04:16:13.930Z,3.23
2018-03-30T04:21:17.130Z,4.90
2018-03-30T04:26:21.222Z,4.60
2018-03-30T04:31:23.754Z,3.43
2018-03-30T04:36:26.331Z,3.73
2018-03-30T04:41:28.907Z,2.53
2018-03-30T04:46:31.585Z,1.97
2018-03-30T04:51:34.369Z,2.43
2018-03-30T04:56:37.753Z,2.67
2018-03-30T05:01:41.404Z,4.43
2018-03-30T05:06:44.420Z,4.03
2018-03-30T05:11:47.407Z,2.40
2018-03-30T05:16:50.713Z,5.50
2018-03-30T05:21:54.056Z,2.60
2018-03-30T05:26:56.595Z,1.77
2018-03-30T05:31:59.173Z,3.30
2018-03-30T05:37:02.010Z,2.60
2018-03-30T05:42:04.629Z,2.27
2018-03-30T05:47:07.723Z,3.93
2018-03-30T05:52:11.031Z,1.30
2018-03-30T05:57:13.824Z,2.87
2018-03-30T06:02:16.956Z,3.77
2018-03-30T06:07:20.311Z,2.07
2018-03-30T06:12:22.868Z,2.17
2018-03-30T06:17:26.260Z,5.50
2018-03-30T06:22:29.592Z,3.23
2018-03-30T06:27:32.331Z,3.93
2018-03-30T06:32:34.880Z,4.87
2018-03-30T06:37:37.623Z,3.00
2018-03-30T06:42:41.049Z,5.00
2018-03-30T06:47:43.651Z,7.60
2018-03-30T06:52:46.238Z,3.37
2018-03-30T06:57:48.948Z,4.90
2018-03-30T07:02:51.515Z,35.53
2018-03-30T07:07:54.987Z,5.57
2018-03-30T07:12:57.503Z,5.30
2018-03-30T07:18:00.005Z,5.33
2018-03-30T07:23:03.282Z,6.90
2018-03-30T07:28:06.615Z,5.23
2018-03-30T07:33:09.462Z,5.80
2018-03-30T07:38:12.192Z,7.47
2018-03-30T07:43:15.509Z,3.90
2018-03-30T07:48:18.034Z,4.10
2018-03-30T07:53:20.605Z,4.97
2018-03-30T07:58:23.270Z,5.60
2018-03-30T08:03:26.123Z,6.60
2018-03-30T08:08:28.765Z,4.60
2018-03-30T08:13:31.355Z,3.90
2018-03-30T08:18:34.067Z,6.00
2018-03-30T08:23:36.764Z,5.90
2018-03-30T08:28:39.367Z,5.13
2018-03-30T08:33:41.958Z,7.33
2018-03-30T08:38:45.364Z,10.77
2018-03-30T08:43:47.908Z,43.70
2018-03-30T08:48:51.058Z,49.13
2018-03-30T08:53:53.632Z,52.23
2018-03-30T08:58:56.318Z,51.27
2018-03-30T09:03:58.968Z,47.93
2018-03-30T09:09:01.627Z,46.13
2018-03-30T09:14:04.564Z,44.70
2018-03-30T09:19:07.147Z,40.60
2018-03-30T09:24:11.203Z,52.57
2018-03-30T09:29:13.767Z,34.87
2018-03-30T09:34:16.331Z,34.73
2018-03-30T09:39:19.711Z,33.17
2018-03-30T09:44:22.255Z,21.77
2018-03-30T09:49:24.763Z,23.33
2018-03-30T09:54:27.515Z,18.00
2018-03-30T09:59:30.393Z,24.17
2018-03-30T10:04:32.984Z,18.33
2018-03-30T10:09:35.678Z,16.00
2018-03-30T10:14:39.071Z,14.60
2018-03-30T10:19:41.792Z,19.77
2018-03-30T10:24:44.421Z,13.23
2018-03-30T10:29:47.215Z,10.43
2018-03-30T10:34:49.915Z,7.07
2018-03-30T10:39:52.605Z,7.53
2018-03-30T10:44:56.092Z,5.63
2018-03-30T10:49:59.200Z,6.13
2018-03-30T10:55:02.599Z,7.07
2018-03-30T11:00:05.331Z,4.00
2018-03-30T11:05:07.884Z,4.20
2018-03-30T11:10:10.848Z,3.53
2018-03-30T11:15:13.412Z,3.20
2018-03-30T11:20:16.214Z,3.47
2018-03-30T11:25:18.906Z,4.03
2018-03-30T11:30:22.280Z,5.30
2018-03-30T11:35:25.661Z,3.30
2018-03-30T11:40:28.238Z,3.20
2018-03-30T11:45:31.028Z,4.47
2018-03-30T11:50:34.523Z,4.87
2018-03-30T11:55:37.335Z,3.33
2018-03-30T12:00:41.013Z,7.33
2018-03-30T12:05:43.652Z,7.53
2018-03-30T12:10:47.141Z,3.90
2018-03-30T12:15:49.818Z,7.37
2018-03-30T12:20:52.497Z,10.70
2018-03-30T12:25:55.471Z,9.10
2018-03-30T12:30:59.904Z,8.33
2018-03-30T12:36:02.604Z,11.40
2018-03-30T12:41:05.186Z,12.43
2018-03-30T12:46:08.673Z,10.13
2018-03-30T12:51:11.527Z,9.30
2018-03-30T12:56:14.828Z,10.43
2018-03-30T13:01:18.124Z,7.00
2018-03-30T13:06:21.632Z,8.67
2018-03-30T13:11:24.137Z,7.50
2018-03-30T13:16:26.639Z,8.83
2018-03-30T13:21:30.028Z,5.30
2018-03-30T13:26:32.875Z,5.17
2018-03-30T13:31:36.252Z,7.70
2018-03-30T13:36:39.275Z,9.60
2018-03-30T13:41:42.019Z,7.17
2018-03-30T13:46:44.809Z,6.73
2018-03-30T13:51:51.910Z,6.17
2018-03-30T13:56:55.299Z,6.60
2018-03-30T14:02:06.647Z,7.37
2018-03-30T14:12:40.715Z,6.70
2018-03-30T14:17:44.209Z,4.57
2018-03-30T14:22:53.834Z,5.07
2018-03-30T14:28:12.611Z,7.60
2018-03-30T14:33:18.703Z,5.37
2018-03-30T14:38:38.833Z,5.53
2018-03-30T14:43:44.320Z,9.10
2018-03-30T14:48:49.043Z,6.97
2018-03-30T14:53:54.251Z,5.23
2018-03-30T14:59:07.744Z,9.40
2018-03-30T15:04:12.412Z,8.43
2018-03-30T15:09:21.642Z,8.17
2018-03-30T15:14:26.251Z,5.93
2018-03-30T15:25:14.952Z,4.87
2018-03-30T15:30:24.150Z,3.87
2018-03-30T15:35:26.710Z,3.20
2018-03-30T15:40:32.381Z,7.17
2018-03-30T15:45:37.904Z,7.00
2018-03-30T15:50:40.640Z,2.90
2018-03-30T15:55:43.284Z,3.10
2018-03-30T16:00:45.838Z,2.23
2018-03-30T16:05:48.530Z,2.90
2018-03-30T16:10:54.625Z,7.03
2018-03-30T16:15:57.401Z,2.70
2018-03-30T16:20:59.621Z,4.60
2018-03-30T16:26:01.662Z,4.03
2018-03-30T16:31:03.731Z,5.73
2018-03-30T16:36:05.771Z,8.30
2018-03-30T16:41:07.779Z,9.53
2018-03-30T16:46:09.845Z,4.60
2018-03-30T16:51:11.873Z,3.30
2018-03-30T16:56:14.767Z,7.50
2018-03-30T17:01:16.843Z,2.40
2018-03-30T17:06:18.906Z,2.13
2018-03-30T17:11:21.018Z,3.10
2018-03-30T17:16:23.089Z,3.30
2018-03-30T17:21:25.206Z,6.33
2018-03-30T17:26:27.236Z,3.70
2018-03-30T17:31:29.306Z,3.80
2018-03-30T17:36:31.355Z,5.30
2018-03-30T17:41:33.420Z,9.13
2018-03-30T17:46:35.527Z,5.90
2018-03-30T17:51:37.634Z,6.60
2018-03-30T17:56:39.761Z,6.33
2018-03-30T18:01:42.768Z,6.80
2018-03-30T18:06:44.861Z,5.73
2018-03-30T18:11:47.676Z,5.60
2018-03-30T18:16:49.721Z,5.00
2018-03-30T18:21:51.750Z,5.67
2018-03-30T18:26:53.758Z,6.80
2018-03-30T18:31:55.921Z,5.60
2018-03-30T18:36:58.149Z,5.97
2018-03-30T18:42:00.196Z,7.47
2018-03-30T18:47:02.335Z,6.20
2018-03-30T18:52:04.450Z,5.37
2018-03-30T18:57:06.542Z,5.13
2018-03-30T19:02:08.599Z,5.37
2018-03-30T19:07:10.819Z,4.53
2018-03-30T19:12:12.968Z,5.50
2018-03-30T19:17:15.030Z,5.80
2018-03-30T19:22:17.427Z,6.60
2018-03-30T19:27:20.276Z,4.90
2018-03-30T19:32:23.226Z,7.03
2018-03-30T19:37:25.332Z,6.60
2018-03-30T19:42:27.412Z,4.50
2018-03-30T19:47:29.505Z,6.13
2018-03-30T19:52:31.621Z,4.80
2018-03-30T19:57:33.706Z,8.10
2018-03-30T20:02:35.770Z,5.80
2018-03-30T20:07:37.838Z,6.63
2018-03-30T20:12:39.897Z,6.73
2018-03-30T20:17:42.181Z,6.10
2018-03-30T20:22:46.451Z,7.90
2018-03-30T20:27:48.499Z,5.00
2018-03-30T20:32:51.400Z,6.17
2018-03-30T20:37:54.389Z,4.20
2018-03-30T20:42:57.316Z,7.30
2018-03-30T20:47:59.361Z,5.23
2018-03-30T20:53:01.435Z,8.33
2018-03-30T20:58:04.605Z,4.93
2018-03-30T21:03:07.310Z,5.77
2018-03-30T21:08:09.635Z,4.67
2018-03-30T21:13:11.772Z,6.97
2018-03-30T21:18:13.941Z,9.50
2018-03-30T21:23:16.027Z,5.30
2018-03-30T21:28:18.113Z,11.27
2018-03-30T21:33:20.219Z,5.90
2018-03-30T21:38:22.511Z,5.33
2018-03-30T21:43:24.662Z,5.03
2018-03-30T21:48:26.731Z,4.77
2018-03-30T21:53:28.837Z,5.00
2018-03-30T21:58:30.890Z,8.73
2018-03-30T22:03:33.039Z,6.20
2018-03-30T22:08:35.060Z,5.53
2018-03-30T22:13:37.295Z,4.20
2018-03-30T22:18:39.364Z,5.47
2018-03-30T22:23:41.406Z,6.70
2018-03-30T22:28:43.535Z,8.53
2018-03-30T22:33:45.633Z,4.83
2018-03-30T22:38:47.858Z,6.03
2018-03-30T22:43:50.074Z,5.50
2018-03-30T22:48:52.912Z,5.93
2018-03-30T22:53:54.968Z,7.73
2018-03-30T22:58:57.207Z,3.97
2018-03-30T23:03:59.262Z,6.20
2018-03-30T23:09:01.370Z,7.33
2018-03-30T23:14:03.409Z,4.07
2018-03-30T23:19:05.576Z,4.67
2018-03-30T23:24:07.626Z,5.37
2018-03-30T23:29:10.357Z,5.03
2018-03-30T23:34:12.540Z,6.40
2018-03-30T23:39:15.358Z,5.20
2018-03-30T23:44:17.460Z,4.03
2018-03-30T23:49:19.647Z,4.80
2018-03-30T23:54:21.818Z,4.13
2018-03-30T23:59:24.576Z,4.40
